createdAt,value
2023-02-04T00:00:21.399Z,9.52
2023-02-04T00:05:37.091Z,10.77
2023-02-04T00:08:05.790Z,10.30
2023-02-04T00:10:34.008Z,9.15
2023-02-04T00:13:02.658Z,9.27
2023-02-04T00:15:31.117Z,9.40
2023-02-04T00:17:59.117Z,9.25
2023-02-04T00:20:26.849Z,11.35
2023-02-04T00:22:55.044Z,11.20
2023-02-04T00:25:22.686Z,9.65
2023-02-04T00:27:50.674Z,11.43
2023-02-04T00:30:18.630Z,11.38
2023-02-04T00:32:46.609Z,9.82
2023-02-04T00:35:14.353Z,7.75
2023-02-04T00:37:42.333Z,10.57
2023-02-04T00:40:10.863Z,9.38
2023-02-04T00:42:40.940Z,8.35
2023-02-04T00:45:09.788Z,7.78
2023-02-04T00:47:37.851Z,9.52
2023-02-04T00:50:06.182Z,11.38
2023-02-04T00:52:34.591Z,9.93
2023-02-04T00:55:03.578Z,8.10
2023-02-04T00:57:31.583Z,8.18
2023-02-04T00:59:59.267Z,8.88
2023-02-04T01:02:27.222Z,10.40
2023-02-04T01:04:55.028Z,6.88
2023-02-04T01:07:23.534Z,7.95
2023-02-04T01:09:51.301Z,6.65
2023-02-04T01:12:19.240Z,8.68
2023-02-04T01:14:47.068Z,9.93
2023-02-04T01:17:14.981Z,9.02
2023-02-04T01:19:42.687Z,11.00
2023-02-04T01:22:10.614Z,8.50
2023-02-04T01:24:38.234Z,10.02
2023-02-04T01:27:24.944Z,9.15
2023-02-04T01:29:52.636Z,6.80
2023-02-04T01:32:20.548Z,9.32
2023-02-04T01:34:48.250Z,9.20
2023-02-04T01:37:16.280Z,7.85
2023-02-04T01:39:43.918Z,8.65
2023-02-04T01:42:12.606Z,9.38
2023-02-04T01:44:40.901Z,7.95
2023-02-04T01:47:09.208Z,9.57
2023-02-04T01:49:36.912Z,8.98
2023-02-04T01:52:05.666Z,7.47
2023-02-04T01:54:33.496Z,8.50
2023-02-04T01:57:02.151Z,8.38
2023-02-04T01:59:30.066Z,8.30
2023-02-04T02:02:01.261Z,8.60
2023-02-04T02:04:34.044Z,8.40
2023-02-04T02:07:06.445Z,8.98
2023-02-04T02:09:35.237Z,7.63
2023-02-04T02:12:04.413Z,7.15
2023-02-04T02:14:32.699Z,6.70
2023-02-04T02:17:00.671Z,6.88
2023-02-04T02:19:33.926Z,8.25
2023-02-04T02:22:28.998Z,7.22
2023-02-04T02:24:56.658Z,7.80
2023-02-04T02:27:24.808Z,7.90
2023-02-04T02:29:52.702Z,8.27
2023-02-04T02:32:21.047Z,6.72
2023-02-04T02:34:48.724Z,8.25
2023-02-04T02:37:16.751Z,6.25
2023-02-04T02:39:46.254Z,6.05
2023-02-04T02:42:17.741Z,8.82
2023-02-04T02:44:47.038Z,6.88
2023-02-04T02:47:17.883Z,6.60
2023-02-04T02:49:48.985Z,7.53
2023-02-04T02:52:17.722Z,6.78
2023-02-04T02:54:46.079Z,6.60
2023-02-04T02:57:21.994Z,5.88
2023-02-04T02:59:50.230Z,6.55
2023-02-04T03:02:22.814Z,6.40
2023-02-04T03:04:55.627Z,6.70
2023-02-04T03:07:27.366Z,5.57
2023-02-04T03:09:55.174Z,6.78
2023-02-04T03:12:23.125Z,6.63
2023-02-04T03:14:51.057Z,7.32
2023-02-04T03:17:19.264Z,6.75
2023-02-04T03:19:47.415Z,6.80
2023-02-04T03:22:16.317Z,6.00
2023-02-04T03:24:45.707Z,6.07
2023-02-04T03:27:15.297Z,7.03
2023-02-04T03:29:46.437Z,6.82
2023-02-04T03:32:14.369Z,6.90
2023-02-04T03:34:41.993Z,6.07
2023-02-04T03:37:10.026Z,6.90
2023-02-04T03:39:37.805Z,6.30
2023-02-04T03:42:05.711Z,7.18
2023-02-04T03:44:33.362Z,6.85
2023-02-04T03:47:01.284Z,6.10
2023-02-04T03:49:29.056Z,6.07
2023-02-04T03:51:57.005Z,5.82
2023-02-04T03:54:24.704Z,5.78
2023-02-04T03:56:52.686Z,5.63
2023-02-04T03:59:20.473Z,5.20
2023-02-04T04:01:48.436Z,5.78
2023-02-04T04:04:16.173Z,5.28
2023-02-04T04:06:44.101Z,5.47
2023-02-04T04:09:11.744Z,5.65
2023-02-04T04:11:39.647Z,4.43
2023-02-04T04:14:07.359Z,5.00
2023-02-04T04:16:35.294Z,5.40
2023-02-04T04:19:03.104Z,5.28
2023-02-04T04:21:31.154Z,4.80
2023-02-04T04:23:58.775Z,5.35
2023-02-04T04:26:26.757Z,5.75
2023-02-04T04:28:54.432Z,6.20
2023-02-04T04:31:22.450Z,5.38
2023-02-04T04:33:50.094Z,6.40
2023-02-04T04:36:18.129Z,6.47
2023-02-04T04:38:45.847Z,6.90
2023-02-04T04:41:13.803Z,7.13
2023-02-04T04:43:41.433Z,6.18
2023-02-04T04:46:09.419Z,6.30
2023-02-04T04:48:37.166Z,6.28
2023-02-04T04:51:05.198Z,6.95
2023-02-04T04:53:32.842Z,6.82
2023-02-04T04:56:00.899Z,6.78
2023-02-04T04:58:28.543Z,7.20
2023-02-04T05:00:56.446Z,7.93
2023-02-04T05:03:24.121Z,7.60
2023-02-04T05:05:52.025Z,7.97
2023-02-04T05:08:21.303Z,7.78
2023-02-04T05:10:50.064Z,7.22
2023-02-04T05:13:17.661Z,8.10
2023-02-04T05:15:45.747Z,8.77
2023-02-04T05:18:13.367Z,7.93
2023-02-04T05:20:41.284Z,7.95
2023-02-04T05:23:09.049Z,8.00
2023-02-04T05:25:36.926Z,8.50
2023-02-04T05:28:05.056Z,9.10
2023-02-04T05:30:33.232Z,8.23
2023-02-04T05:33:01.101Z,9.10
2023-02-04T05:35:29.630Z,9.65
2023-02-04T05:37:57.271Z,9.00
2023-02-04T05:40:25.200Z,8.57
2023-02-04T05:42:52.800Z,8.57
2023-02-04T05:45:20.831Z,8.68
2023-02-04T05:47:48.678Z,8.40
2023-02-04T05:50:17.008Z,8.73
2023-02-04T05:52:44.747Z,7.93
2023-02-04T05:55:13.120Z,8.70
2023-02-04T05:57:40.898Z,8.70
2023-02-04T06:00:11.406Z,8.57
2023-02-04T06:02:42.091Z,10.32
2023-02-04T06:05:10.388Z,8.57
2023-02-04T06:07:38.119Z,8.27
2023-02-04T06:10:06.303Z,8.93
2023-02-04T06:12:34.561Z,8.10
2023-02-04T06:15:02.638Z,8.45
2023-02-04T06:17:30.268Z,7.90
2023-02-04T06:19:58.305Z,7.55
2023-02-04T06:22:26.877Z,7.90
2023-02-04T06:24:54.969Z,7.15
2023-02-04T06:27:25.365Z,6.53
2023-02-04T06:29:54.967Z,6.80
2023-02-04T06:32:22.926Z,6.65
2023-02-04T06:34:53.681Z,6.35
2023-02-04T06:37:23.521Z,6.63
2023-02-04T06:39:54.508Z,6.88
2023-02-04T06:42:22.170Z,7.10
2023-02-04T06:44:50.058Z,6.80
2023-02-04T06:47:17.927Z,6.68
2023-02-04T06:49:45.844Z,7.20
2023-02-04T06:52:13.491Z,6.45
2023-02-04T06:54:41.696Z,6.75
2023-02-04T06:57:09.499Z,6.80
2023-02-04T06:59:39.271Z,6.20
2023-02-04T07:02:08.371Z,6.45
2023-02-04T07:04:36.435Z,6.75
2023-02-04T07:07:04.554Z,6.35
2023-02-04T07:09:32.537Z,6.50
2023-02-04T07:12:00.301Z,6.07
2023-02-04T07:14:28.293Z,6.10
2023-02-04T07:16:58.222Z,5.68
2023-02-04T07:19:26.182Z,5.78
2023-02-04T07:21:56.744Z,6.35
2023-02-04T07:24:25.298Z,6.07
2023-02-04T07:26:52.967Z,6.05
2023-02-04T07:29:25.594Z,5.93
2023-02-04T07:31:54.501Z,6.13
2023-02-04T07:34:22.917Z,6.45
2023-02-04T07:36:50.803Z,5.45
2023-02-04T07:39:18.982Z,5.70
2023-02-04T07:41:46.834Z,5.53
2023-02-04T07:44:22.285Z,4.95
2023-02-04T07:46:50.010Z,4.35
2023-02-04T07:49:17.985Z,4.90
2023-02-04T07:51:45.615Z,3.97
2023-02-04T07:54:13.554Z,4.35
2023-02-04T07:56:41.216Z,4.25
2023-02-04T07:59:09.173Z,3.40
2023-02-04T08:01:36.932Z,3.97
2023-02-04T08:04:05.014Z,3.85
2023-02-04T08:06:32.739Z,3.70
2023-02-04T08:09:00.720Z,4.13
2023-02-04T08:11:28.347Z,3.70
2023-02-04T08:13:56.318Z,4.10
2023-02-04T08:16:23.987Z,3.90
2023-02-04T08:18:51.997Z,3.80
2023-02-04T08:21:19.652Z,3.53
2023-02-04T08:23:47.741Z,3.40
2023-02-04T08:26:15.657Z,3.17
2023-02-04T08:28:43.545Z,3.22
2023-02-04T08:31:12.099Z,3.60
2023-02-04T08:33:40.677Z,3.50
2023-02-04T08:36:08.906Z,3.15
2023-02-04T08:38:36.876Z,3.38
2023-02-04T08:41:05.918Z,3.08
2023-02-04T08:43:33.944Z,3.55
2023-02-04T08:46:01.621Z,3.75
2023-02-04T08:48:29.780Z,3.83
2023-02-04T08:50:57.532Z,4.00
2023-02-04T08:53:25.772Z,4.18
2023-02-04T08:55:53.513Z,3.90
2023-02-04T08:58:21.456Z,3.10
2023-02-04T09:00:49.313Z,3.50
2023-02-04T09:03:17.374Z,3.35
2023-02-04T09:05:45.001Z,3.13
2023-02-04T09:08:13.065Z,3.30
2023-02-04T09:10:40.714Z,3.05
2023-02-04T09:13:11.732Z,2.78
2023-02-04T09:15:39.488Z,2.90
2023-02-04T09:18:18.879Z,2.55
2023-02-04T09:20:47.016Z,2.47
2023-02-04T09:23:15.554Z,2.55
2023-02-04T09:25:44.965Z,2.85
2023-02-04T09:28:14.175Z,3.08
2023-02-04T09:30:44.057Z,3.20
2023-02-04T09:33:13.596Z,2.72
2023-02-04T09:35:41.628Z,2.42
2023-02-04T09:38:09.925Z,2.90
2023-02-04T09:40:43.194Z,2.60
2023-02-04T09:43:16.629Z,2.60
2023-02-04T09:45:44.454Z,2.78
2023-02-04T09:48:14.711Z,2.65
2023-02-04T09:50:42.706Z,2.63
2023-02-04T09:53:24.574Z,2.47
2023-02-04T09:55:52.661Z,2.25
2023-02-04T09:58:22.899Z,2.53
2023-02-04T10:01:06.454Z,2.10
2023-02-04T10:03:35.576Z,2.50
2023-02-04T10:06:03.611Z,2.53
2023-02-04T10:08:34.471Z,2.45
2023-02-04T10:11:02.339Z,2.97
2023-02-04T10:13:37.248Z,2.70
2023-02-04T10:16:14.240Z,2.42
2023-02-04T10:18:42.827Z,2.30
2023-02-04T10:21:17.751Z,2.40
2023-02-04T10:23:49.981Z,2.20
2023-02-04T10:26:18.853Z,1.90
2023-02-04T10:28:46.890Z,2.40
2023-02-04T10:31:33.248Z,2.35
2023-02-04T10:34:13.528Z,2.50
2023-02-04T10:36:44.531Z,3.13
2023-02-04T10:39:14.280Z,3.05
2023-02-04T10:41:53.234Z,3.10
2023-02-04T10:44:26.217Z,3.05
2023-02-04T10:49:22.191Z,3.40
2023-02-04T10:51:52.770Z,3.47
2023-02-04T10:54:30.181Z,3.28
2023-02-04T10:57:09.459Z,3.47
2023-02-04T10:59:37.774Z,3.22
2023-02-04T11:02:32.918Z,3.40
2023-02-04T11:05:01.724Z,3.03
2023-02-04T11:07:30.589Z,3.10
2023-02-04T11:09:58.543Z,3.38
2023-02-04T11:12:52.965Z,3.40
2023-02-04T11:15:55.971Z,3.05
2023-02-04T11:18:23.893Z,2.70
2023-02-04T11:20:54.970Z,3.13
2023-02-04T11:23:32.323Z,2.78
2023-02-04T11:26:31.901Z,2.92
2023-02-04T11:28:59.868Z,2.78
2023-02-04T11:31:29.420Z,3.00
2023-02-04T11:34:23.777Z,2.78
2023-02-04T11:37:08.154Z,3.13
2023-02-04T11:39:42.672Z,3.60
2023-02-04T11:42:24.628Z,2.92
2023-02-04T11:44:56.102Z,2.88
2023-02-04T11:47:25.700Z,2.90
2023-02-04T11:50:01.698Z,3.67
2023-02-04T11:52:29.444Z,2.90
2023-02-04T11:54:59.995Z,3.42
2023-02-04T11:57:28.226Z,3.38
2023-02-04T11:59:56.385Z,3.30
2023-02-04T12:02:28.287Z,3.40
2023-02-04T12:05:11.669Z,3.42
2023-02-04T12:07:40.089Z,4.00
2023-02-04T12:10:22.111Z,3.70
2023-02-04T12:12:53.334Z,3.42
2023-02-04T12:15:38.119Z,4.05
2023-02-04T12:18:12.949Z,3.63
2023-02-04T12:20:41.058Z,3.95
2023-02-04T12:23:08.704Z,3.83
2023-02-04T12:25:36.741Z,4.30
2023-02-04T12:28:04.714Z,3.47
2023-02-04T12:30:32.764Z,4.15
2023-02-04T12:33:00.531Z,4.10
2023-02-04T12:35:28.474Z,4.35
2023-02-04T12:37:56.431Z,4.97
2023-02-04T12:40:24.412Z,4.63
2023-02-04T12:42:52.289Z,4.00
2023-02-04T12:45:20.244Z,4.03
2023-02-04T12:47:48.430Z,5.72
2023-02-04T12:50:22.845Z,4.05
2023-02-04T12:52:52.545Z,4.15
2023-02-04T12:55:23.640Z,3.28
2023-02-04T12:57:52.218Z,3.67
2023-02-04T13:00:21.614Z,4.15
2023-02-04T13:02:49.752Z,3.60
2023-02-04T13:05:18.555Z,3.15
2023-02-04T13:07:46.352Z,3.28
2023-02-04T13:10:15.092Z,3.80
2023-02-04T13:12:42.733Z,3.13
2023-02-04T13:15:11.538Z,3.45
2023-02-04T13:17:39.244Z,3.63
2023-02-04T13:20:08.571Z,3.72
2023-02-04T13:22:36.377Z,3.40
2023-02-04T13:25:05.021Z,3.13
2023-02-04T13:27:33.344Z,3.40
2023-02-04T13:30:01.590Z,3.20
2023-02-04T13:32:29.355Z,2.65
2023-02-04T13:34:57.323Z,2.70
2023-02-04T13:37:25.233Z,2.38
2023-02-04T13:39:53.186Z,2.28
2023-02-04T13:42:21.569Z,2.60
2023-02-04T13:44:49.538Z,2.60
2023-02-04T13:47:17.182Z,3.00
2023-02-04T13:49:45.285Z,2.70
2023-02-04T13:52:13.018Z,2.60
2023-02-04T13:54:41.020Z,2.55
2023-02-04T13:57:08.746Z,2.97
2023-02-04T13:59:36.704Z,2.90
2023-02-04T14:02:04.459Z,2.85
2023-02-04T14:04:32.381Z,2.80
2023-02-04T14:07:00.021Z,3.40
2023-02-04T14:09:28.052Z,3.38
2023-02-04T14:11:55.749Z,3.50
2023-02-04T14:14:23.699Z,3.92
2023-02-04T14:16:51.487Z,3.33
2023-02-04T14:19:19.528Z,3.38
2023-02-04T14:21:48.723Z,3.33
2023-02-04T14:24:17.286Z,3.92
2023-02-04T14:26:45.522Z,3.08
2023-02-04T14:29:13.568Z,2.85
2023-02-04T14:31:41.258Z,3.20
2023-02-04T14:34:09.312Z,3.17
2023-02-04T14:36:36.972Z,3.35
2023-02-04T14:39:05.058Z,3.28
2023-02-04T14:41:32.862Z,2.60
2023-02-04T14:44:00.877Z,3.60
2023-02-04T14:46:28.658Z,3.20
2023-02-04T14:48:56.650Z,3.17
2023-02-04T14:51:24.407Z,3.03
2023-02-04T14:53:52.390Z,3.40
2023-02-04T14:56:20.036Z,3.03
2023-02-04T14:58:47.978Z,3.28
2023-02-04T15:01:15.813Z,3.20
2023-02-04T15:03:43.794Z,3.10
2023-02-04T15:06:11.495Z,3.65
2023-02-04T15:08:39.440Z,3.03
2023-02-04T15:11:07.085Z,3.42
2023-02-04T15:13:34.990Z,3.35
2023-02-04T15:16:04.282Z,3.45
2023-02-04T15:18:33.387Z,3.72
2023-02-04T15:21:01.300Z,3.45
2023-02-04T15:23:29.567Z,3.83
2023-02-04T15:25:57.678Z,3.83
2023-02-04T15:28:27.837Z,4.72
2023-02-04T15:30:55.718Z,3.97
2023-02-04T15:33:24.055Z,4.03
2023-02-04T15:35:51.790Z,4.35
2023-02-04T15:38:19.803Z,4.10
2023-02-04T15:40:47.823Z,4.10
2023-02-04T15:43:15.746Z,3.72
2023-02-04T15:45:44.014Z,4.13
2023-02-04T15:48:12.216Z,4.25
2023-02-04T15:50:40.211Z,3.60
2023-02-04T15:53:08.112Z,3.28
2023-02-04T15:55:35.775Z,3.67
2023-02-04T15:58:03.773Z,3.78
2023-02-04T16:00:31.763Z,3.72
2023-02-04T16:02:59.903Z,3.83
2023-02-04T16:05:27.698Z,4.10
2023-02-04T16:07:55.604Z,4.10
2023-02-04T16:10:23.324Z,3.80
2023-02-04T16:12:52.446Z,4.20
2023-02-04T16:15:20.132Z,3.90
2023-02-04T16:17:48.393Z,3.88
2023-02-04T16:20:16.240Z,4.13
2023-02-04T16:22:44.380Z,4.10
2023-02-04T16:25:12.114Z,4.25
2023-02-04T16:27:40.108Z,3.95
2023-02-04T16:30:08.632Z,4.88
2023-02-04T16:32:37.132Z,4.22
2023-02-04T16:35:05.076Z,4.25
2023-02-04T16:37:34.280Z,4.00
2023-02-04T16:40:02.246Z,5.40
2023-02-04T16:42:31.306Z,6.30
2023-02-04T16:44:59.890Z,5.00
2023-02-04T16:47:27.874Z,6.18
2023-02-04T16:49:59.908Z,5.43
2023-02-04T16:52:29.044Z,5.38
2023-02-04T16:54:56.993Z,5.00
2023-02-04T16:57:25.067Z,6.03
2023-02-04T16:59:52.859Z,4.82
2023-02-04T17:02:20.814Z,4.88
2023-02-04T17:04:48.620Z,5.65
2023-02-04T17:07:16.490Z,5.45
2023-02-04T17:09:44.146Z,5.50
2023-02-04T17:12:12.107Z,5.63
2023-02-04T17:14:41.122Z,5.70
2023-02-04T17:17:09.134Z,6.28
2023-02-04T17:19:36.825Z,5.82
2023-02-04T17:22:05.104Z,5.30
2023-02-04T17:24:32.892Z,5.70
2023-02-04T17:27:03.327Z,5.65
2023-02-04T17:29:30.966Z,5.88
2023-02-04T17:31:58.910Z,6.10
2023-02-04T17:34:26.569Z,5.93
2023-02-04T17:36:54.821Z,6.70
2023-02-04T17:39:22.534Z,6.85
2023-02-04T17:41:50.608Z,7.10
2023-02-04T17:44:20.139Z,7.68
2023-02-04T17:46:48.256Z,7.70
2023-02-04T17:49:16.176Z,6.63
2023-02-04T17:51:44.113Z,7.80
2023-02-04T17:54:14.211Z,6.63
2023-02-04T17:56:42.186Z,7.38
2023-02-04T17:59:11.218Z,7.82
2023-02-04T18:01:40.755Z,7.28
2023-02-04T18:04:13.334Z,6.97
2023-02-04T18:06:41.548Z,7.03
2023-02-04T18:09:18.902Z,8.07
2023-02-04T18:11:46.996Z,9.88
2023-02-04T18:14:27.356Z,13.07
2023-02-04T18:17:00.565Z,12.77
2023-02-04T18:19:36.932Z,9.80
2023-02-04T18:22:11.685Z,7.72
2023-02-04T18:24:40.254Z,8.00
2023-02-04T18:27:24.740Z,8.38
2023-02-04T18:29:55.700Z,9.05
2023-02-04T18:32:31.267Z,8.75
2023-02-04T18:34:59.492Z,9.55
2023-02-04T18:37:30.965Z,8.68
2023-02-04T18:40:11.369Z,9.30
2023-02-04T18:42:44.884Z,9.73
2023-02-04T18:45:25.595Z,10.38
2023-02-04T18:48:01.826Z,9.38
2023-02-04T18:50:35.160Z,10.07
2023-02-04T18:53:35.511Z,10.90
2023-02-04T18:56:09.372Z,11.00
2023-02-04T18:58:41.703Z,10.50
2023-02-04T19:01:12.870Z,9.38
2023-02-04T19:04:02.087Z,8.85
2023-02-04T19:06:51.080Z,10.07
2023-02-04T19:09:32.431Z,9.23
2023-02-04T19:12:13.478Z,10.50
2023-02-04T19:14:44.539Z,9.93
2023-02-04T19:17:17.849Z,10.27
2023-02-04T19:19:56.781Z,8.77
2023-02-04T19:22:47.812Z,8.07
2023-02-04T19:25:41.066Z,7.90
2023-02-04T19:28:51.324Z,7.60
2023-02-04T19:31:19.620Z,7.78
2023-02-04T19:33:51.148Z,7.97
2023-02-04T19:36:35.812Z,8.40
2023-02-04T19:39:33.972Z,9.23
2023-02-04T19:42:03.617Z,8.25
2023-02-04T19:44:37.554Z,9.02
2023-02-04T19:47:29.005Z,9.50
2023-02-04T19:50:28.168Z,9.02
2023-02-04T19:53:02.078Z,8.98
2023-02-04T19:58:15.436Z,11.07
2023-02-04T20:00:46.992Z,10.80
2023-02-04T20:03:49.871Z,10.15
2023-02-04T20:06:26.544Z,10.40
2023-02-04T20:09:09.586Z,9.75
2023-02-04T20:11:41.843Z,11.73
2023-02-04T20:14:15.680Z,12.98
2023-02-04T20:19:31.504Z,14.02
2023-02-04T20:22:17.989Z,13.60
2023-02-04T20:24:47.466Z,13.25
2023-02-04T20:27:28.447Z,13.30
2023-02-04T20:30:26.530Z,12.48
2023-02-04T20:33:25.312Z,11.98
2023-02-04T20:35:53.314Z,12.75
2023-02-04T20:38:21.050Z,12.70
2023-02-04T20:40:48.941Z,13.18
2023-02-04T20:43:20.256Z,12.07
2023-02-04T20:45:55.562Z,12.55
2023-02-04T20:48:34.847Z,12.35
2023-02-04T20:51:04.852Z,12.70
2023-02-04T20:54:01.111Z,12.15
2023-02-04T20:56:35.352Z,12.95
2023-02-04T20:59:22.985Z,13.15
2023-02-04T21:01:51.116Z,14.15
2023-02-04T21:04:41.813Z,13.93
2023-02-04T21:07:21.482Z,16.95
2023-02-04T21:09:49.903Z,16.33
2023-02-04T21:12:17.903Z,15.57
2023-02-04T21:14:45.659Z,14.48
2023-02-04T21:17:13.641Z,14.68
2023-02-04T21:19:41.321Z,14.32
2023-02-04T21:22:09.307Z,14.00
2023-02-04T21:24:36.941Z,14.02
2023-02-04T21:27:05.035Z,13.50
2023-02-04T21:29:32.678Z,12.82
2023-02-04T21:32:00.654Z,13.05
2023-02-04T21:34:28.413Z,11.90
2023-02-04T21:36:56.375Z,11.88
2023-02-04T21:39:24.904Z,12.23
2023-02-04T21:42:10.043Z,11.75
2023-02-04T21:44:39.420Z,11.23
2023-02-04T21:47:07.401Z,11.35
2023-02-04T21:49:35.946Z,10.02
2023-02-04T21:52:05.013Z,10.27
2023-02-04T21:54:32.730Z,10.20
2023-02-04T21:57:04.296Z,11.80
2023-02-04T21:59:32.021Z,11.10
2023-02-04T22:01:59.780Z,11.40
2023-02-04T22:04:28.171Z,11.60
2023-02-04T22:06:56.058Z,11.25
2023-02-04T22:09:24.186Z,11.45
2023-02-04T22:11:51.886Z,10.93
2023-02-04T22:14:38.293Z,11.38
2023-02-04T22:17:05.999Z,11.80
2023-02-04T22:19:33.981Z,10.82
2023-02-04T22:22:01.724Z,10.23
2023-02-04T22:24:29.730Z,9.93
2023-02-04T22:26:57.758Z,11.02
2023-02-04T22:29:29.972Z,9.90
2023-02-04T22:31:57.699Z,9.73
2023-02-04T22:34:25.922Z,9.77
2023-02-04T22:36:53.846Z,9.30
2023-02-04T22:39:22.043Z,9.85
2023-02-04T22:41:49.686Z,10.27
2023-02-04T22:44:17.694Z,10.45
2023-02-04T22:46:47.452Z,10.90
2023-02-04T22:49:15.818Z,10.55
2023-02-04T22:51:43.514Z,11.02
2023-02-04T22:54:11.596Z,11.32
2023-02-04T22:56:39.290Z,11.73
2023-02-04T22:59:07.229Z,11.48
2023-02-04T23:01:34.961Z,11.45
2023-02-04T23:04:03.253Z,11.82
2023-02-04T23:06:31.160Z,11.70
2023-02-04T23:12:23.173Z,10.77
2023-02-04T23:14:51.305Z,10.38
2023-02-04T23:17:19.056Z,10.35
2023-02-04T23:19:47.184Z,10.48
2023-02-04T23:22:15.512Z,10.18
2023-02-04T23:24:44.145Z,10.25
2023-02-04T23:27:12.168Z,10.00
2023-02-04T23:29:40.582Z,10.10
2023-02-04T23:32:08.927Z,9.90
2023-02-04T23:34:37.073Z,10.02
2023-02-04T23:37:05.026Z,9.70
2023-02-04T23:39:33.222Z,9.25
2023-02-04T23:42:01.015Z,9.73
2023-02-04T23:44:29.079Z,9.52
2023-02-04T23:46:56.856Z,9.25
2023-02-04T23:49:24.817Z,8.77
2023-02-04T23:51:52.547Z,9.10
2023-02-04T23:54:20.487Z,8.82
2023-02-04T23:56:48.248Z,9.30
2023-02-04T23:59:16.433Z,8.77
